NKS3LD KPHX-KLAX
Flight info
| Callsign | NKS3LD |
|---|---|
| Flight time | 1h 23m |
| Altitude | 32000 |
| Route | BXK4 BLH KREME BOGET2 |
| Aircraft | A20N/M-VGDW/C |
Departure
| Time | 2026-05-04 01:40 |
|---|---|
| Airport | Phoenix Sky Harbor International Airport (KPHX) |
Arrival
| Time | 2026-05-04 03:03 |
|---|---|
| Airport | Los Angeles International Airport (KLAX) |
| Time | Latitude | Longitude | Altitude | Speed | Heading |
|---|---|---|---|---|---|
| 2026-05-04 01:21 | 33.43769 | -111.99367 | 1134 ft | 0 kts | 274° |
| 2026-05-04 01:27 | 33.43768 | -111.99348 | 1138 ft | 2 kts | 274° |
| 2026-05-04 01:27 | 33.43767 | -111.99344 | 1135 ft | 0 kts | 274° |
| 2026-05-04 01:29 | 33.43767 | -111.99341 | 1135 ft | 0 kts | 285° |
| 2026-05-04 01:29 | 33.43765 | -111.99333 | 1136 ft | 2 kts | 315° |
| 2026-05-04 01:30 | 33.43756 | -111.99326 | 1139 ft | 0 kts | 360° |
| 2026-05-04 01:30 | 33.43761 | -111.99326 | 1139 ft | 0 kts | 360° |
| 2026-05-04 01:31 | 33.43767 | -111.99320 | 1138 ft | 3 kts | 43° |
| 2026-05-04 01:31 | 33.43758 | -111.99261 | 1138 ft | 12 kts | 121° |
| 2026-05-04 01:31 | 33.43670 | -111.99225 | 1136 ft | 16 kts | 170° |
| 2026-05-04 01:32 | 33.43561 | -111.99226 | 1136 ft | 17 kts | 181° |
| 2026-05-04 01:32 | 33.43429 | -111.99227 | 1136 ft | 21 kts | 180° |
| 2026-05-04 01:32 | 33.43297 | -111.99229 | 1136 ft | 6 kts | 181° |
| 2026-05-04 01:32 | 33.43289 | -111.99230 | 1135 ft | 0 kts | 181° |
| 2026-05-04 01:33 | 33.43256 | -111.99234 | 1136 ft | 8 kts | 194° |
| 2026-05-04 01:33 | 33.43254 | -111.99235 | 1137 ft | 0 kts | 194° |
| 2026-05-04 01:34 | 33.43240 | -111.99240 | 1136 ft | 5 kts | 200° |
| 2026-05-04 01:34 | 33.43200 | -111.99275 | 1138 ft | 0 kts | 223° |
| 2026-05-04 01:37 | 33.43194 | -111.99282 | 1139 ft | 4 kts | 223° |
| 2026-05-04 01:38 | 33.43162 | -111.99318 | 1138 ft | 9 kts | 223° |
| 2026-05-04 01:38 | 33.43107 | -111.99375 | 1139 ft | 10 kts | 238° |
| 2026-05-04 01:38 | 33.43103 | -111.99398 | 1143 ft | 0 kts | 267° |
| 2026-05-04 01:39 | 33.43103 | -111.99400 | 1143 ft | 3 kts | 267° |
| 2026-05-04 01:39 | 33.43100 | -111.99560 | 1140 ft | 50 kts | 270° |
| 2026-05-04 01:40 | 33.43101 | -112.00431 | 1148 ft | 155 kts | 270° |
| 2026-05-04 01:40 | 33.43090 | -112.01906 | 1676 ft | 195 kts | 269° |
| 2026-05-04 01:40 | 33.43056 | -112.03695 | 2243 ft | 231 kts | 264° |
| 2026-05-04 01:40 | 33.42973 | -112.05718 | 2883 ft | 254 kts | 263° |
| 2026-05-04 01:41 | 33.42842 | -112.07878 | 3515 ft | 264 kts | 262° |
| 2026-05-04 01:41 | 33.42664 | -112.10107 | 4158 ft | 276 kts | 261° |
| 2026-05-04 01:41 | 33.42135 | -112.12320 | 4928 ft | 271 kts | 237° |
| 2026-05-04 01:41 | 33.41047 | -112.13950 | 5555 ft | 233 kts | 227° |
| 2026-05-04 01:42 | 33.40028 | -112.15393 | 5901 ft | 224 kts | 231° |
| 2026-05-04 01:42 | 33.39137 | -112.16927 | 5991 ft | 225 kts | 236° |
| 2026-05-04 01:42 | 33.38369 | -112.18564 | 6100 ft | 226 kts | 240° |
| 2026-05-04 01:42 | 33.37687 | -112.20260 | 6793 ft | 232 kts | 242° |
| 2026-05-04 01:43 | 33.37066 | -112.22068 | 7991 ft | 235 kts | 249° |
| 2026-05-04 01:43 | 33.36951 | -112.24043 | 9110 ft | 251 kts | 275° |
| 2026-05-04 01:43 | 33.37455 | -112.26086 | 10251 ft | 260 kts | 285° |
| 2026-05-04 01:43 | 33.38121 | -112.28098 | 11493 ft | 259 kts | 287° |
| 2026-05-04 01:44 | 33.38803 | -112.30096 | 12680 ft | 263 kts | 287° |
| 2026-05-04 01:44 | 33.39512 | -112.32220 | 13340 ft | 287 kts | 287° |
| 2026-05-04 01:44 | 33.40270 | -112.34518 | 14034 ft | 307 kts | 287° |
| 2026-05-04 01:44 | 33.41082 | -112.36993 | 14511 ft | 332 kts | 287° |
| 2026-05-04 01:45 | 33.41954 | -112.39660 | 15028 ft | 353 kts | 287° |
| 2026-05-04 01:45 | 33.42858 | -112.42432 | 15872 ft | 361 kts | 287° |
| 2026-05-04 01:45 | 33.44450 | -112.48140 | 18014 ft | 362 kts | 281° |
| 2026-05-04 01:46 | 33.45067 | -112.51068 | 18941 ft | 362 kts | 278° |
| 2026-05-04 01:46 | 33.45552 | -112.54032 | 19819 ft | 364 kts | 276° |
| 2026-05-04 01:46 | 33.45911 | -112.57037 | 20486 ft | 364 kts | 274° |
| 2026-05-04 01:46 | 33.46137 | -112.60054 | 20787 ft | 364 kts | 271° |
| 2026-05-04 01:47 | 33.46224 | -112.63098 | 21139 ft | 367 kts | 268° |
| 2026-05-04 01:47 | 33.46174 | -112.66162 | 21971 ft | 369 kts | 266° |
| 2026-05-04 01:47 | 33.46038 | -112.69229 | 22897 ft | 369 kts | 265° |
| 2026-05-04 01:47 | 33.45880 | -112.72301 | 23680 ft | 371 kts | 265° |
| 2026-05-04 01:48 | 33.45718 | -112.75393 | 24358 ft | 373 kts | 265° |
| 2026-05-04 01:48 | 33.45610 | -112.78504 | 25032 ft | 375 kts | 269° |
| 2026-05-04 01:48 | 33.45827 | -112.81637 | 25590 ft | 383 kts | 277° |
| 2026-05-04 01:48 | 33.46532 | -112.84768 | 25898 ft | 398 kts | 287° |
| 2026-05-04 01:49 | 33.47725 | -112.87835 | 26161 ft | 412 kts | 292° |
| 2026-05-04 01:49 | 33.49103 | -112.90900 | 26410 ft | 423 kts | 294° |
| 2026-05-04 01:49 | 33.50537 | -112.94024 | 26741 ft | 430 kts | 294° |
| 2026-05-04 01:49 | 33.51974 | -112.97162 | 27362 ft | 429 kts | 294° |
| 2026-05-04 01:50 | 33.53397 | -113.00284 | 28154 ft | 424 kts | 293° |
| 2026-05-04 01:50 | 33.54800 | -113.03374 | 28940 ft | 421 kts | 293° |
| 2026-05-04 01:50 | 33.56170 | -113.06404 | 29712 ft | 417 kts | 292° |
| 2026-05-04 01:50 | 33.57536 | -113.09433 | 30492 ft | 409 kts | 292° |
| 2026-05-04 01:51 | 33.58875 | -113.12386 | 31548 ft | 396 kts | 292° |
| 2026-05-04 01:51 | 33.60175 | -113.15226 | 32716 ft | 380 kts | 292° |
| 2026-05-04 01:51 | 33.61433 | -113.17948 | 33943 ft | 365 kts | 292° |
| 2026-05-04 01:51 | 33.62649 | -113.20547 | 34957 ft | 350 kts | 291° |
| 2026-05-04 01:52 | 33.63831 | -113.23043 | 35876 ft | 338 kts | 291° |
| 2026-05-04 01:52 | 33.64958 | -113.25371 | 36117 ft | 312 kts | 291° |
| 2026-05-04 01:52 | 33.66042 | -113.27564 | 35658 ft | 298 kts | 291° |
| 2026-05-04 01:52 | 33.67089 | -113.29652 | 35216 ft | 291 kts | 291° |
| 2026-05-04 01:53 | 33.68151 | -113.31789 | 34851 ft | 305 kts | 291° |
| 2026-05-04 01:53 | 33.69247 | -113.34031 | 34563 ft | 318 kts | 291° |
| 2026-05-04 01:53 | 33.70375 | -113.36371 | 34292 ft | 329 kts | 291° |
| 2026-05-04 01:53 | 33.71527 | -113.38785 | 34069 ft | 338 kts | 292° |
| 2026-05-04 01:54 | 33.72702 | -113.41270 | 33878 ft | 346 kts | 292° |
| 2026-05-04 01:54 | 33.73897 | -113.43816 | 33905 ft | 353 kts | 291° |
| 2026-05-04 01:54 | 33.75109 | -113.46406 | 33509 ft | 357 kts | 291° |
| 2026-05-04 01:54 | 33.76332 | -113.49003 | 33347 ft | 357 kts | 292° |
| 2026-05-04 01:55 | 33.77559 | -113.51612 | 33177 ft | 359 kts | 291° |
| 2026-05-04 01:55 | 33.78790 | -113.54237 | 33014 ft | 361 kts | 292° |
| 2026-05-04 01:55 | 33.80028 | -113.56879 | 32855 ft | 363 kts | 292° |
| 2026-05-04 01:55 | 33.81271 | -113.59530 | 32676 ft | 364 kts | 292° |
| 2026-05-04 01:56 | 33.82520 | -113.62191 | 32510 ft | 367 kts | 292° |
| 2026-05-04 01:56 | 33.83776 | -113.64873 | 32351 ft | 369 kts | 292° |
| 2026-05-04 01:56 | 33.85036 | -113.67566 | 32201 ft | 370 kts | 292° |
| 2026-05-04 01:56 | 33.86301 | -113.70275 | 32052 ft | 373 kts | 292° |
| 2026-05-04 01:57 | 33.87569 | -113.73006 | 31920 ft | 374 kts | 292° |
| 2026-05-04 01:57 | 33.88823 | -113.75744 | 31768 ft | 374 kts | 291° |
| 2026-05-04 01:57 | 33.90084 | -113.78499 | 31638 ft | 377 kts | 291° |
| 2026-05-04 01:57 | 33.91353 | -113.81273 | 31515 ft | 379 kts | 291° |
| 2026-05-04 01:58 | 33.93923 | -113.86928 | 31318 ft | 390 kts | 292° |
| 2026-05-04 01:58 | 33.96540 | -113.92717 | 31155 ft | 395 kts | 291° |
| 2026-05-04 01:59 | 33.99170 | -113.98552 | 31012 ft | 397 kts | 291° |
| 2026-05-04 01:59 | 34.01810 | -114.04416 | 30859 ft | 399 kts | 291° |
| 2026-05-04 02:00 | 34.04458 | -114.10306 | 30749 ft | 400 kts | 291° |
| 2026-05-04 02:00 | 34.07114 | -114.16227 | 30611 ft | 403 kts | 291° |
| 2026-05-04 02:01 | 34.09779 | -114.22183 | 30489 ft | 404 kts | 291° |
| 2026-05-04 02:01 | 34.11874 | -114.27198 | 30365 ft | 397 kts | 285° |
| 2026-05-04 02:02 | 34.12634 | -114.34645 | 31815 ft | 362 kts | 261° |
| 2026-05-04 02:02 | 34.12200 | -114.36563 | 33194 ft | 342 kts | 253° |
| 2026-05-04 02:02 | 34.11332 | -114.39091 | 34947 ft | 309 kts | 252° |
| 2026-05-04 02:03 | 34.10527 | -114.41363 | 36460 ft | 284 kts | 251° |
| 2026-05-04 02:03 | 34.09726 | -114.43618 | 36082 ft | 306 kts | 251° |
| 2026-05-04 02:03 | 34.08865 | -114.46084 | 35507 ft | 330 kts | 251° |
| 2026-05-04 02:03 | 34.07976 | -114.48659 | 34984 ft | 341 kts | 251° |
| 2026-05-04 02:04 | 34.07062 | -114.51315 | 34492 ft | 345 kts | 251° |
| 2026-05-04 02:04 | 34.06136 | -114.54012 | 34021 ft | 349 kts | 251° |
| 2026-05-04 02:04 | 34.05204 | -114.56733 | 33545 ft | 353 kts | 251° |
| 2026-05-04 02:04 | 34.04263 | -114.59487 | 33038 ft | 357 kts | 251° |
| 2026-05-04 02:05 | 34.03313 | -114.62275 | 32559 ft | 362 kts | 251° |
| 2026-05-04 02:05 | 34.02354 | -114.65099 | 32110 ft | 366 kts | 251° |
| 2026-05-04 02:05 | 34.01383 | -114.67966 | 31682 ft | 371 kts | 250° |
| 2026-05-04 02:05 | 34.00404 | -114.70863 | 31271 ft | 375 kts | 250° |
| 2026-05-04 02:06 | 33.99415 | -114.73795 | 30882 ft | 380 kts | 250° |
| 2026-05-04 02:06 | 33.98417 | -114.76759 | 30585 ft | 384 kts | 250° |
| 2026-05-04 02:06 | 33.96387 | -114.82807 | 31144 ft | 390 kts | 250° |
| 2026-05-04 02:07 | 33.95383 | -114.85794 | 32065 ft | 381 kts | 251° |
| 2026-05-04 02:07 | 33.94383 | -114.88771 | 32597 ft | 374 kts | 251° |
| 2026-05-04 02:07 | 33.93468 | -114.91569 | 33724 ft | 354 kts | 253° |
| 2026-05-04 02:07 | 33.92577 | -114.94420 | 33222 ft | 371 kts | 252° |
| 2026-05-04 02:08 | 33.91681 | -114.97303 | 32753 ft | 363 kts | 252° |
| 2026-05-04 02:08 | 33.90940 | -115.00162 | 32307 ft | 354 kts | 260° |
| 2026-05-04 02:08 | 33.90817 | -115.03119 | 31908 ft | 356 kts | 269° |
| 2026-05-04 02:08 | 33.90934 | -115.06122 | 31570 ft | 361 kts | 270° |
| 2026-05-04 02:09 | 33.91048 | -115.09148 | 31252 ft | 364 kts | 270° |
| 2026-05-04 02:09 | 33.91163 | -115.12205 | 30971 ft | 367 kts | 270° |
| 2026-05-04 02:09 | 33.91278 | -115.15287 | 30701 ft | 370 kts | 269° |
| 2026-05-04 02:09 | 33.91393 | -115.18395 | 30442 ft | 373 kts | 269° |
| 2026-05-04 02:10 | 33.91508 | -115.21538 | 30175 ft | 376 kts | 269° |
| 2026-05-04 02:10 | 33.91623 | -115.24693 | 29916 ft | 379 kts | 269° |
| 2026-05-04 02:10 | 33.91737 | -115.27880 | 29637 ft | 382 kts | 269° |
| 2026-05-04 02:10 | 33.91852 | -115.31090 | 29345 ft | 385 kts | 269° |
| 2026-05-04 02:11 | 33.91965 | -115.34312 | 29064 ft | 386 kts | 269° |
| 2026-05-04 02:11 | 33.92080 | -115.37544 | 28816 ft | 386 kts | 270° |
| 2026-05-04 02:11 | 33.92195 | -115.40779 | 28587 ft | 387 kts | 270° |
| 2026-05-04 02:11 | 33.92311 | -115.44024 | 28345 ft | 389 kts | 270° |
| 2026-05-04 02:12 | 33.92426 | -115.47288 | 28110 ft | 390 kts | 270° |
| 2026-05-04 02:12 | 33.92542 | -115.50554 | 27883 ft | 392 kts | 270° |
| 2026-05-04 02:12 | 33.92658 | -115.53844 | 27671 ft | 393 kts | 270° |
| 2026-05-04 02:12 | 33.92773 | -115.57135 | 27458 ft | 394 kts | 270° |
| 2026-05-04 02:13 | 33.92889 | -115.60437 | 27247 ft | 394 kts | 270° |
| 2026-05-04 02:13 | 33.93004 | -115.63731 | 27043 ft | 394 kts | 270° |
| 2026-05-04 02:13 | 33.93119 | -115.67015 | 26849 ft | 391 kts | 270° |
| 2026-05-04 02:13 | 33.93234 | -115.70277 | 26696 ft | 389 kts | 270° |
| 2026-05-04 02:14 | 33.93350 | -115.73539 | 26503 ft | 390 kts | 269° |
| 2026-05-04 02:14 | 33.93467 | -115.76768 | 26318 ft | 387 kts | 269° |
| 2026-05-04 02:14 | 33.93510 | -115.77958 | 26239 ft | 386 kts | 269° |
| 2026-05-04 02:15 | 33.93626 | -115.81176 | 26048 ft | 384 kts | 269° |
| 2026-05-04 02:15 | 33.93763 | -115.84391 | 25905 ft | 385 kts | 272° |
| 2026-05-04 02:15 | 33.94226 | -115.87597 | 26292 ft | 392 kts | 279° |
| 2026-05-04 02:15 | 33.95089 | -115.90723 | 26697 ft | 394 kts | 287° |
| 2026-05-04 02:16 | 33.96212 | -115.93732 | 27061 ft | 393 kts | 288° |
| 2026-05-04 02:16 | 33.97332 | -115.96722 | 27459 ft | 390 kts | 288° |
| 2026-05-04 02:16 | 33.98442 | -115.99687 | 27862 ft | 387 kts | 288° |
| 2026-05-04 02:16 | 33.99540 | -116.02633 | 28254 ft | 384 kts | 287° |
| 2026-05-04 02:17 | 34.00631 | -116.05559 | 28644 ft | 381 kts | 287° |
| 2026-05-04 02:17 | 34.01715 | -116.08463 | 29004 ft | 379 kts | 287° |
| 2026-05-04 02:17 | 34.02798 | -116.11361 | 29401 ft | 377 kts | 287° |
| 2026-05-04 02:17 | 34.03875 | -116.14236 | 29769 ft | 375 kts | 287° |
| 2026-05-04 02:18 | 34.04949 | -116.17096 | 30094 ft | 373 kts | 287° |
| 2026-05-04 02:18 | 34.06019 | -116.19939 | 30439 ft | 371 kts | 287° |
| 2026-05-04 02:18 | 34.07085 | -116.22767 | 30734 ft | 369 kts | 287° |
| 2026-05-04 02:18 | 34.08147 | -116.25577 | 30974 ft | 367 kts | 287° |
| 2026-05-04 02:19 | 34.09203 | -116.28366 | 31267 ft | 365 kts | 286° |
| 2026-05-04 02:19 | 34.10258 | -116.31146 | 31530 ft | 363 kts | 286° |
| 2026-05-04 02:19 | 34.11305 | -116.33902 | 31775 ft | 360 kts | 286° |
| 2026-05-04 02:19 | 34.12347 | -116.36638 | 32028 ft | 357 kts | 286° |
| 2026-05-04 02:20 | 34.13384 | -116.39353 | 32271 ft | 355 kts | 286° |
| 2026-05-04 02:20 | 34.14416 | -116.42048 | 32512 ft | 352 kts | 286° |
| 2026-05-04 02:20 | 34.15443 | -116.44722 | 32735 ft | 350 kts | 286° |
| 2026-05-04 02:20 | 34.16465 | -116.47376 | 32971 ft | 347 kts | 285° |
| 2026-05-04 02:21 | 34.17402 | -116.50037 | 33205 ft | 341 kts | 282° |
| 2026-05-04 02:21 | 34.18117 | -116.52700 | 33444 ft | 334 kts | 278° |
| 2026-05-04 02:21 | 34.18610 | -116.55413 | 33653 ft | 328 kts | 273° |
| 2026-05-04 02:21 | 34.18801 | -116.58126 | 33805 ft | 322 kts | 267° |
| 2026-05-04 02:22 | 34.18661 | -116.60808 | 33986 ft | 319 kts | 261° |
| 2026-05-04 02:22 | 34.18182 | -116.63411 | 34179 ft | 317 kts | 254° |
| 2026-05-04 02:22 | 34.17421 | -116.65914 | 34356 ft | 318 kts | 251° |
| 2026-05-04 02:22 | 34.16629 | -116.68405 | 34521 ft | 317 kts | 251° |
| 2026-05-04 02:23 | 34.15840 | -116.70885 | 34673 ft | 316 kts | 251° |
| 2026-05-04 02:23 | 34.15049 | -116.73366 | 34855 ft | 316 kts | 251° |
| 2026-05-04 02:23 | 34.14261 | -116.75840 | 35061 ft | 315 kts | 251° |
| 2026-05-04 02:23 | 34.13474 | -116.78305 | 35214 ft | 315 kts | 251° |
| 2026-05-04 02:24 | 34.12686 | -116.80769 | 35332 ft | 315 kts | 251° |
| 2026-05-04 02:24 | 34.11898 | -116.83234 | 35441 ft | 315 kts | 251° |
| 2026-05-04 02:24 | 34.10328 | -116.88139 | 35688 ft | 311 kts | 251° |
| 2026-05-04 02:25 | 34.09547 | -116.90571 | 35826 ft | 309 kts | 251° |
| 2026-05-04 02:25 | 34.08774 | -116.92978 | 35943 ft | 307 kts | 251° |
| 2026-05-04 02:25 | 34.08001 | -116.95378 | 36060 ft | 306 kts | 251° |
| 2026-05-04 02:25 | 34.07240 | -116.97737 | 35848 ft | 300 kts | 251° |
| 2026-05-04 02:26 | 34.06477 | -117.00111 | 35035 ft | 307 kts | 251° |
| 2026-05-04 02:26 | 34.05702 | -117.02536 | 34225 ft | 312 kts | 251° |
| 2026-05-04 02:26 | 34.04921 | -117.04994 | 33347 ft | 316 kts | 251° |
| 2026-05-04 02:26 | 34.04132 | -117.07489 | 32454 ft | 320 kts | 251° |
| 2026-05-04 02:27 | 34.03338 | -117.10012 | 31579 ft | 324 kts | 251° |
| 2026-05-04 02:27 | 34.02538 | -117.12571 | 30754 ft | 328 kts | 251° |
| 2026-05-04 02:27 | 34.01730 | -117.15168 | 29938 ft | 332 kts | 251° |
| 2026-05-04 02:27 | 34.00921 | -117.17788 | 29026 ft | 336 kts | 250° |
| 2026-05-04 02:28 | 34.00106 | -117.20438 | 28133 ft | 338 kts | 251° |
| 2026-05-04 02:28 | 33.99293 | -117.23099 | 27261 ft | 340 kts | 251° |
| 2026-05-04 02:28 | 33.98476 | -117.25780 | 26342 ft | 341 kts | 250° |
| 2026-05-04 02:28 | 33.97658 | -117.28469 | 25514 ft | 343 kts | 250° |
| 2026-05-04 02:29 | 33.96838 | -117.31192 | 24710 ft | 348 kts | 250° |
| 2026-05-04 02:29 | 33.96008 | -117.33960 | 23955 ft | 354 kts | 250° |
| 2026-05-04 02:29 | 33.95163 | -117.36774 | 23124 ft | 360 kts | 250° |
| 2026-05-04 02:29 | 33.94307 | -117.39629 | 22285 ft | 365 kts | 250° |
| 2026-05-04 02:30 | 33.93451 | -117.42522 | 22147 ft | 369 kts | 251° |
| 2026-05-04 02:30 | 33.92635 | -117.45467 | 22038 ft | 370 kts | 252° |
| 2026-05-04 02:30 | 33.91869 | -117.48416 | 21952 ft | 369 kts | 252° |
| 2026-05-04 02:30 | 33.91111 | -117.51360 | 21827 ft | 368 kts | 252° |
| 2026-05-04 02:31 | 33.90360 | -117.54283 | 21727 ft | 360 kts | 252° |
| 2026-05-04 02:31 | 33.89641 | -117.57091 | 21586 ft | 344 kts | 252° |
| 2026-05-04 02:31 | 33.88748 | -117.59712 | 21570 ft | 339 kts | 236° |
| 2026-05-04 02:31 | 33.86868 | -117.61464 | 21860 ft | 354 kts | 209° |
| 2026-05-04 02:32 | 33.84387 | -117.61936 | 22155 ft | 373 kts | 188° |
| 2026-05-04 02:32 | 33.81780 | -117.61805 | 22440 ft | 379 kts | 183° |
| 2026-05-04 02:32 | 33.79194 | -117.60905 | 22689 ft | 403 kts | 164° |
| 2026-05-04 02:32 | 33.76817 | -117.58925 | 22951 ft | 441 kts | 145° |
| 2026-05-04 02:33 | 33.74870 | -117.55903 | 23246 ft | 476 kts | 126° |
| 2026-05-04 02:33 | 33.73613 | -117.52222 | 23407 ft | 469 kts | 110° |
| 2026-05-04 02:33 | 33.73025 | -117.48423 | 23525 ft | 460 kts | 102° |
| 2026-05-04 02:33 | 33.72927 | -117.44558 | 23512 ft | 465 kts | 88° |
| 2026-05-04 02:34 | 33.73351 | -117.40732 | 22994 ft | 461 kts | 82° |
| 2026-05-04 02:34 | 33.73914 | -117.36934 | 22063 ft | 464 kts | 81° |
| 2026-05-04 02:34 | 33.74500 | -117.33099 | 21130 ft | 467 kts | 81° |
| 2026-05-04 02:34 | 33.75093 | -117.29257 | 20428 ft | 468 kts | 81° |
| 2026-05-04 02:35 | 33.75691 | -117.25410 | 20062 ft | 470 kts | 81° |
| 2026-05-04 02:35 | 33.76296 | -117.21536 | 19966 ft | 472 kts | 81° |
| 2026-05-04 02:35 | 33.76901 | -117.17653 | 19949 ft | 471 kts | 81° |
| 2026-05-04 02:35 | 33.77505 | -117.13784 | 19947 ft | 470 kts | 81° |
| 2026-05-04 02:36 | 33.78107 | -117.09922 | 19935 ft | 469 kts | 81° |
| 2026-05-04 02:36 | 33.78712 | -117.06069 | 19937 ft | 469 kts | 81° |
| 2026-05-04 02:36 | 33.79315 | -117.02228 | 19934 ft | 469 kts | 81° |
| 2026-05-04 02:36 | 33.79920 | -116.98367 | 19919 ft | 469 kts | 81° |
| 2026-05-04 02:37 | 33.80522 | -116.94518 | 19915 ft | 469 kts | 81° |
| 2026-05-04 02:37 | 33.81124 | -116.90660 | 19905 ft | 469 kts | 81° |
| 2026-05-04 02:37 | 33.81727 | -116.86799 | 19848 ft | 470 kts | 81° |
| 2026-05-04 02:37 | 33.82326 | -116.82943 | 19861 ft | 469 kts | 81° |
| 2026-05-04 02:38 | 33.82922 | -116.79085 | 19854 ft | 468 kts | 81° |
| 2026-05-04 02:38 | 33.83521 | -116.75230 | 19845 ft | 468 kts | 81° |
| 2026-05-04 02:38 | 33.84124 | -116.71386 | 19811 ft | 469 kts | 81° |
| 2026-05-04 02:38 | 33.84749 | -116.67541 | 19834 ft | 466 kts | 81° |
| 2026-05-04 02:39 | 33.85352 | -116.63729 | 19807 ft | 464 kts | 81° |
| 2026-05-04 02:39 | 33.85977 | -116.59918 | 19820 ft | 465 kts | 81° |
| 2026-05-04 02:39 | 33.86611 | -116.56084 | 19829 ft | 468 kts | 81° |
| 2026-05-04 02:39 | 33.87225 | -116.52246 | 19814 ft | 467 kts | 81° |
| 2026-05-04 02:40 | 33.87833 | -116.48412 | 19813 ft | 466 kts | 81° |
| 2026-05-04 02:40 | 33.88768 | -116.44687 | 19811 ft | 467 kts | 65° |
| 2026-05-04 02:40 | 33.89830 | -116.42441 | 19814 ft | 466 kts | 54° |
| 2026-05-04 02:40 | 33.91780 | -116.39333 | 19811 ft | 465 kts | 49° |
| 2026-05-04 02:41 | 33.93899 | -116.36405 | 19808 ft | 462 kts | 42° |
| 2026-05-04 02:41 | 33.96306 | -116.33864 | 19802 ft | 458 kts | 33° |
| 2026-05-04 02:41 | 33.99007 | -116.31912 | 19803 ft | 450 kts | 18° |
| 2026-05-04 02:41 | 34.01967 | -116.30919 | 19799 ft | 435 kts | 359° |
| 2026-05-04 02:42 | 34.04911 | -116.31073 | 19804 ft | 416 kts | 340° |
| 2026-05-04 02:42 | 34.07541 | -116.32300 | 19797 ft | 398 kts | 322° |
| 2026-05-04 02:42 | 34.09634 | -116.34363 | 19795 ft | 381 kts | 305° |
| 2026-05-04 02:42 | 34.11069 | -116.36989 | 19796 ft | 368 kts | 289° |
| 2026-05-04 02:43 | 34.11817 | -116.39890 | 19696 ft | 358 kts | 276° |
| 2026-05-04 02:43 | 34.11945 | -116.42831 | 19026 ft | 348 kts | 265° |
| 2026-05-04 02:43 | 34.11700 | -116.45726 | 18192 ft | 347 kts | 259° |
| 2026-05-04 02:43 | 34.11271 | -116.48600 | 17846 ft | 349 kts | 257° |
| 2026-05-04 02:44 | 34.10770 | -116.51480 | 17801 ft | 351 kts | 256° |
| 2026-05-04 02:44 | 34.10262 | -116.54350 | 17797 ft | 350 kts | 257° |
| 2026-05-04 02:44 | 34.09769 | -116.57221 | 17798 ft | 349 kts | 257° |
| 2026-05-04 02:44 | 34.09302 | -116.60089 | 17794 ft | 347 kts | 257° |
| 2026-05-04 02:45 | 34.08856 | -116.62905 | 17337 ft | 338 kts | 257° |
| 2026-05-04 02:45 | 34.08423 | -116.65702 | 16929 ft | 342 kts | 257° |
| 2026-05-04 02:45 | 34.07984 | -116.68543 | 16833 ft | 346 kts | 257° |
| 2026-05-04 02:45 | 34.07544 | -116.71397 | 16822 ft | 347 kts | 257° |
| 2026-05-04 02:46 | 34.07107 | -116.74262 | 16831 ft | 347 kts | 258° |
| 2026-05-04 02:46 | 34.06672 | -116.77119 | 16843 ft | 346 kts | 258° |
| 2026-05-04 02:46 | 34.06233 | -116.79974 | 16853 ft | 347 kts | 257° |
| 2026-05-04 02:46 | 34.05795 | -116.82829 | 16847 ft | 346 kts | 257° |
| 2026-05-04 02:47 | 34.05359 | -116.85679 | 16857 ft | 346 kts | 257° |
| 2026-05-04 02:47 | 34.04922 | -116.88532 | 16902 ft | 345 kts | 257° |
| 2026-05-04 02:47 | 34.04488 | -116.91362 | 16891 ft | 343 kts | 257° |
| 2026-05-04 02:47 | 34.04052 | -116.94187 | 16883 ft | 342 kts | 257° |
| 2026-05-04 02:48 | 34.03617 | -116.97000 | 16891 ft | 341 kts | 257° |
| 2026-05-04 02:48 | 34.03181 | -116.99807 | 16916 ft | 341 kts | 257° |
| 2026-05-04 02:48 | 34.02748 | -117.02620 | 16919 ft | 341 kts | 258° |
| 2026-05-04 02:48 | 34.02345 | -117.05443 | 16912 ft | 341 kts | 258° |
| 2026-05-04 02:49 | 34.01941 | -117.08266 | 16914 ft | 341 kts | 258° |
| 2026-05-04 02:49 | 34.01542 | -117.11051 | 16907 ft | 341 kts | 258° |
| 2026-05-04 02:49 | 34.01144 | -117.13845 | 16600 ft | 335 kts | 258° |
| 2026-05-04 02:49 | 34.00755 | -117.16606 | 15777 ft | 334 kts | 258° |
| 2026-05-04 02:50 | 34.00371 | -117.19390 | 15273 ft | 340 kts | 258° |
| 2026-05-04 02:50 | 33.99986 | -117.22220 | 15022 ft | 344 kts | 258° |
| 2026-05-04 02:50 | 33.99596 | -117.25075 | 14984 ft | 344 kts | 258° |
| 2026-05-04 02:50 | 33.99220 | -117.27926 | 14980 ft | 344 kts | 259° |
| 2026-05-04 02:51 | 33.98950 | -117.30790 | 14963 ft | 345 kts | 261° |
| 2026-05-04 02:51 | 33.98705 | -117.33662 | 14993 ft | 344 kts | 261° |
| 2026-05-04 02:51 | 33.98461 | -117.36535 | 14991 ft | 344 kts | 261° |
| 2026-05-04 02:51 | 33.98218 | -117.39402 | 14993 ft | 344 kts | 261° |
| 2026-05-04 02:52 | 33.97976 | -117.42272 | 14987 ft | 344 kts | 261° |
| 2026-05-04 02:52 | 33.97733 | -117.45144 | 14988 ft | 344 kts | 261° |
| 2026-05-04 02:52 | 33.97492 | -117.48015 | 15000 ft | 344 kts | 261° |
| 2026-05-04 02:52 | 33.97249 | -117.50879 | 14989 ft | 344 kts | 261° |
| 2026-05-04 02:53 | 33.97005 | -117.53751 | 14989 ft | 345 kts | 261° |
| 2026-05-04 02:53 | 33.96760 | -117.56629 | 14998 ft | 345 kts | 261° |
| 2026-05-04 02:53 | 33.96516 | -117.59503 | 15003 ft | 345 kts | 261° |
| 2026-05-04 02:53 | 33.96272 | -117.62379 | 14998 ft | 345 kts | 261° |
| 2026-05-04 02:54 | 33.96047 | -117.65261 | 14999 ft | 346 kts | 263° |
| 2026-05-04 02:54 | 33.96014 | -117.65819 | 14998 ft | 346 kts | 263° |
| 2026-05-04 02:54 | 33.95891 | -117.68657 | 14998 ft | 347 kts | 265° |
| 2026-05-04 02:55 | 33.95923 | -117.74394 | 14033 ft | 336 kts | 267° |
| 2026-05-04 02:55 | 33.95959 | -117.77150 | 13700 ft | 322 kts | 267° |
| 2026-05-04 02:55 | 33.96002 | -117.79789 | 13389 ft | 308 kts | 267° |
| 2026-05-04 02:56 | 33.96043 | -117.82337 | 12928 ft | 300 kts | 267° |
| 2026-05-04 02:56 | 33.96081 | -117.84841 | 12382 ft | 296 kts | 267° |
| 2026-05-04 02:56 | 33.96118 | -117.87313 | 11821 ft | 294 kts | 268° |
| 2026-05-04 02:56 | 33.96529 | -117.89729 | 11256 ft | 296 kts | 284° |
| 2026-05-04 02:57 | 33.97180 | -117.92073 | 10705 ft | 294 kts | 284° |
| 2026-05-04 02:57 | 33.97777 | -117.94395 | 10346 ft | 283 kts | 278° |
| 2026-05-04 02:57 | 33.97963 | -117.96678 | 10158 ft | 266 kts | 265° |
| 2026-05-04 02:57 | 33.97807 | -117.98853 | 9923 ft | 256 kts | 260° |
| 2026-05-04 02:58 | 33.97565 | -118.00949 | 9367 ft | 257 kts | 259° |
| 2026-05-04 02:58 | 33.97305 | -118.03110 | 8678 ft | 264 kts | 261° |
| 2026-05-04 02:58 | 33.97083 | -118.05336 | 7990 ft | 271 kts | 261° |
| 2026-05-04 02:58 | 33.96863 | -118.07574 | 7611 ft | 264 kts | 262° |
| 2026-05-04 02:59 | 33.96647 | -118.09714 | 7419 ft | 248 kts | 262° |
| 2026-05-04 02:59 | 33.96446 | -118.11707 | 7201 ft | 231 kts | 262° |
| 2026-05-04 02:59 | 33.96258 | -118.13570 | 7021 ft | 217 kts | 262° |
| 2026-05-04 02:59 | 33.96081 | -118.15317 | 6891 ft | 202 kts | 262° |
| 2026-05-04 03:00 | 33.95917 | -118.16957 | 6693 ft | 193 kts | 262° |
| 2026-05-04 03:00 | 33.95758 | -118.18532 | 6592 ft | 191 kts | 262° |
| 2026-05-04 03:00 | 33.95595 | -118.20137 | 6350 ft | 190 kts | 262° |
| 2026-05-04 03:00 | 33.95437 | -118.21696 | 5955 ft | 192 kts | 262° |
| 2026-05-04 03:01 | 33.95270 | -118.23335 | 5351 ft | 203 kts | 262° |
| 2026-05-04 03:01 | 33.95092 | -118.25071 | 4698 ft | 215 kts | 262° |
| 2026-05-04 03:01 | 33.94904 | -118.26907 | 3847 ft | 228 kts | 262° |
| 2026-05-04 03:01 | 33.94712 | -118.28834 | 2836 ft | 230 kts | 262° |
| 2026-05-04 03:02 | 33.94508 | -118.30755 | 1986 ft | 220 kts | 261° |
| 2026-05-04 03:02 | 33.94309 | -118.32483 | 1538 ft | 202 kts | 261° |
| 2026-05-04 03:02 | 33.94123 | -118.34099 | 1021 ft | 187 kts | 263° |
| 2026-05-04 03:02 | 33.93978 | -118.35608 | 673 ft | 177 kts | 263° |
| 2026-05-04 03:03 | 33.93849 | -118.37046 | 416 ft | 167 kts | 264° |
| 2026-05-04 03:03 | 33.93723 | -118.38391 | 208 ft | 157 kts | 263° |
| 2026-05-04 03:03 | 33.93600 | -118.39616 | 129 ft | 126 kts | 263° |
| 2026-05-04 03:03 | 33.93540 | -118.40213 | 129 ft | 31 kts | 263° |
| 2026-05-04 03:04 | 33.93513 | -118.40480 | 127 ft | 34 kts | 262° |
| 2026-05-04 03:04 | 33.93488 | -118.40716 | 129 ft | 23 kts | 263° |
| 2026-05-04 03:04 | 33.93485 | -118.40938 | 129 ft | 30 kts | 276° |
| 2026-05-04 03:04 | 33.93519 | -118.41112 | 127 ft | 15 kts | 290° |
| 2026-05-04 03:05 | 33.93559 | -118.41207 | 127 ft | 0 kts | 304° |
| 2026-05-04 03:07 | 33.93570 | -118.41224 | 126 ft | 9 kts | 309° |
| 2026-05-04 03:07 | 33.93654 | -118.41270 | 126 ft | 17 kts | 353° |
| 2026-05-04 03:07 | 33.93717 | -118.41279 | 126 ft | 0 kts | 353° |
| 2026-05-04 03:07 | 33.93720 | -118.41280 | 126 ft | 0 kts | 353° |
| 2026-05-04 03:08 | 33.93721 | -118.41280 | 126 ft | 2 kts | 353° |
| 2026-05-04 03:08 | 33.93812 | -118.41263 | 126 ft | 25 kts | 360° |
| 2026-05-04 03:08 | 33.93994 | -118.41283 | 128 ft | 28 kts | 353° |
| 2026-05-04 03:08 | 33.94180 | -118.41312 | 127 ft | 23 kts | 352° |
| 2026-05-04 03:09 | 33.94250 | -118.41324 | 126 ft | 11 kts | 352° |
| 2026-05-04 03:09 | 33.94348 | -118.41341 | 127 ft | 16 kts | 351° |
| 2026-05-04 03:09 | 33.94459 | -118.41364 | 126 ft | 13 kts | 335° |
| 2026-05-04 03:09 | 33.94474 | -118.41437 | 127 ft | 10 kts | 265° |
| 2026-05-04 03:10 | 33.94474 | -118.41444 | 125 ft | 0 kts | 265° |